sensor_id;sensor_type;location;lat;lon;timestamp;P1;durP1;ratioP1;P2;durP2;ratioP2
83145;SDS011;73037;51.110;4.706;2023-11-18T00:00:31;26.60;;;15.63;;
83145;SDS011;73037;51.110;4.706;2023-11-18T00:02:57;30.33;;;18.35;;
83145;SDS011;73037;51.110;4.706;2023-11-18T00:05:23;28.52;;;16.63;;
83145;SDS011;73037;51.110;4.706;2023-11-18T00:07:49;35.10;;;16.92;;
83145;SDS011;73037;51.110;4.706;2023-11-18T00:10:15;31.02;;;17.08;;
83145;SDS011;73037;51.110;4.706;2023-11-18T00:12:42;31.88;;;16.50;;
83145;SDS011;73037;51.110;4.706;2023-11-18T00:15:08;28.15;;;16.00;;
83145;SDS011;73037;51.110;4.706;2023-11-18T00:17:36;31.63;;;16.80;;
83145;SDS011;73037;51.110;4.706;2023-11-18T00:20:03;29.55;;;16.70;;
83145;SDS011;73037;51.110;4.706;2023-11-18T00:22:34;31.75;;;18.90;;
83145;SDS011;73037;51.110;4.706;2023-11-18T00:25:05;36.28;;;17.60;;
83145;SDS011;73037;51.110;4.706;2023-11-18T00:27:34;25.60;;;14.65;;
83145;SDS011;73037;51.110;4.706;2023-11-18T00:30:03;31.15;;;17.25;;
83145;SDS011;73037;51.110;4.706;2023-11-18T00:32:47;28.15;;;16.02;;
83145;SDS011;73037;51.110;4.706;2023-11-18T00:35:13;34.65;;;19.75;;
83145;SDS011;73037;51.110;4.706;2023-11-18T00:37:39;26.63;;;15.45;;
83145;SDS011;73037;51.110;4.706;2023-11-18T00:40:06;28.70;;;15.27;;
83145;SDS011;73037;51.110;4.706;2023-11-18T00:42:33;28.88;;;16.45;;
83145;SDS011;73037;51.110;4.706;2023-11-18T00:45:01;27.30;;;15.63;;
83145;SDS011;73037;51.110;4.706;2023-11-18T00:47:27;27.05;;;15.20;;
83145;SDS011;73037;51.110;4.706;2023-11-18T00:49:53;25.95;;;14.90;;
83145;SDS011;73037;51.110;4.706;2023-11-18T00:52:19;29.10;;;15.27;;
83145;SDS011;73037;51.110;4.706;2023-11-18T00:54:45;33.67;;;15.95;;
83145;SDS011;73037;51.110;4.706;2023-11-18T00:57:10;29.15;;;15.80;;
83145;SDS011;73037;51.110;4.706;2023-11-18T00:59:36;27.52;;;15.25;;
83145;SDS011;73037;51.110;4.706;2023-11-18T01:02:02;29.08;;;15.80;;
83145;SDS011;73037;51.110;4.706;2023-11-18T01:04:28;26.85;;;14.65;;
83145;SDS011;73037;51.110;4.706;2023-11-18T01:06:54;25.70;;;14.98;;
83145;SDS011;73037;51.110;4.706;2023-11-18T01:09:19;26.98;;;14.82;;
83145;SDS011;73037;51.110;4.706;2023-11-18T01:11:49;24.92;;;14.60;;
83145;SDS011;73037;51.110;4.706;2023-11-18T01:14:15;28.35;;;15.27;;
83145;SDS011;73037;51.110;4.706;2023-11-18T01:16:41;27.27;;;15.13;;
83145;SDS011;73037;51.110;4.706;2023-11-18T01:19:09;25.77;;;15.20;;
83145;SDS011;73037;51.110;4.706;2023-11-18T01:21:35;28.00;;;15.00;;
83145;SDS011;73037;51.110;4.706;2023-11-18T01:24:01;29.10;;;14.32;;
83145;SDS011;73037;51.110;4.706;2023-11-18T01:26:27;26.10;;;14.85;;
83145;SDS011;73037;51.110;4.706;2023-11-18T01:28:53;27.67;;;14.73;;
83145;SDS011;73037;51.110;4.706;2023-11-18T01:31:20;27.30;;;14.25;;
83145;SDS011;73037;51.110;4.706;2023-11-18T01:33:46;24.63;;;14.65;;
83145;SDS011;73037;51.110;4.706;2023-11-18T01:36:18;27.10;;;14.07;;
83145;SDS011;73037;51.110;4.706;2023-11-18T01:38:44;28.00;;;14.52;;
83145;SDS011;73037;51.110;4.706;2023-11-18T01:41:09;27.27;;;13.63;;
83145;SDS011;73037;51.110;4.706;2023-11-18T01:43:35;25.50;;;13.73;;
83145;SDS011;73037;51.110;4.706;2023-11-18T01:46:04;28.65;;;13.93;;
83145;SDS011;73037;51.110;4.706;2023-11-18T01:48:35;26.73;;;13.63;;
83145;SDS011;73037;51.110;4.706;2023-11-18T01:51:03;23.58;;;12.68;;
83145;SDS011;73037;51.110;4.706;2023-11-18T01:53:31;26.25;;;13.20;;
83145;SDS011;73037;51.110;4.706;2023-11-18T01:56:00;21.63;;;13.27;;
83145;SDS011;73037;51.110;4.706;2023-11-18T01:58:27;25.05;;;13.57;;
83145;SDS011;73037;51.110;4.706;2023-11-18T02:00:56;23.27;;;13.02;;
83145;SDS011;73037;51.110;4.706;2023-11-18T02:03:22;27.75;;;13.23;;
83145;SDS011;73037;51.110;4.706;2023-11-18T02:05:48;25.65;;;13.57;;
83145;SDS011;73037;51.110;4.706;2023-11-18T02:08:17;23.73;;;12.90;;
83145;SDS011;73037;51.110;4.706;2023-11-18T02:10:57;25.25;;;12.93;;
83145;SDS011;73037;51.110;4.706;2023-11-18T02:13:36;29.17;;;13.38;;
83145;SDS011;73037;51.110;4.706;2023-11-18T02:16:05;24.77;;;12.50;;
83145;SDS011;73037;51.110;4.706;2023-11-18T02:18:33;23.02;;;13.07;;
83145;SDS011;73037;51.110;4.706;2023-11-18T02:21:04;26.42;;;12.60;;
83145;SDS011;73037;51.110;4.706;2023-11-18T02:23:33;24.00;;;12.65;;
83145;SDS011;73037;51.110;4.706;2023-11-18T02:25:59;21.90;;;13.38;;
83145;SDS011;73037;51.110;4.706;2023-11-18T02:28:26;23.77;;;12.27;;
83145;SDS011;73037;51.110;4.706;2023-11-18T02:30:54;22.00;;;12.13;;
83145;SDS011;73037;51.110;4.706;2023-11-18T02:33:36;21.50;;;12.32;;
83145;SDS011;73037;51.110;4.706;2023-11-18T02:36:10;24.30;;;12.60;;
83145;SDS011;73037;51.110;4.706;2023-11-18T02:39:01;22.75;;;12.13;;
83145;SDS011;73037;51.110;4.706;2023-11-18T02:41:37;22.05;;;11.55;;
83145;SDS011;73037;51.110;4.706;2023-11-18T02:44:04;21.48;;;11.65;;
83145;SDS011;73037;51.110;4.706;2023-11-18T02:46:38;20.85;;;11.90;;
83145;SDS011;73037;51.110;4.706;2023-11-18T02:49:05;22.75;;;11.50;;
83145;SDS011;73037;51.110;4.706;2023-11-18T02:51:33;21.00;;;12.63;;
83145;SDS011;73037;51.110;4.706;2023-11-18T02:54:04;20.73;;;11.43;;
83145;SDS011;73037;51.110;4.706;2023-11-18T02:56:36;20.58;;;11.60;;
83145;SDS011;73037;51.110;4.706;2023-11-18T02:59:02;25.67;;;12.23;;
83145;SDS011;73037;51.110;4.706;2023-11-18T03:01:30;21.05;;;11.65;;
83145;SDS011;73037;51.110;4.706;2023-11-18T03:03:59;21.00;;;11.77;;
83145;SDS011;73037;51.110;4.706;2023-11-18T03:06:25;20.25;;;11.30;;
83145;SDS011;73037;51.110;4.706;2023-11-18T03:08:52;22.15;;;11.75;;
83145;SDS011;73037;51.110;4.706;2023-11-18T03:11:18;22.42;;;11.50;;
83145;SDS011;73037;51.110;4.706;2023-11-18T03:13:44;21.92;;;11.68;;
83145;SDS011;73037;51.110;4.706;2023-11-18T03:16:11;20.90;;;12.02;;
83145;SDS011;73037;51.110;4.706;2023-11-18T03:18:41;22.60;;;11.60;;
83145;SDS011;73037;51.110;4.706;2023-11-18T03:21:11;22.85;;;12.77;;
83145;SDS011;73037;51.110;4.706;2023-11-18T03:23:40;21.58;;;11.65;;
83145;SDS011;73037;51.110;4.706;2023-11-18T03:26:09;24.33;;;11.70;;
83145;SDS011;73037;51.110;4.706;2023-11-18T03:28:35;57.20;;;21.80;;
83145;SDS011;73037;51.110;4.706;2023-11-18T03:31:02;28.17;;;15.32;;
83145;SDS011;73037;51.110;4.706;2023-11-18T03:33:32;23.95;;;12.07;;
83145;SDS011;73037;51.110;4.706;2023-11-18T03:35:58;50.63;;;23.10;;
83145;SDS011;73037;51.110;4.706;2023-11-18T03:38:23;35.47;;;18.90;;
83145;SDS011;73037;51.110;4.706;2023-11-18T03:40:50;31.48;;;16.80;;
83145;SDS011;73037;51.110;4.706;2023-11-18T03:43:17;21.92;;;11.50;;
83145;SDS011;73037;51.110;4.706;2023-11-18T03:45:43;39.58;;;22.73;;
83145;SDS011;73037;51.110;4.706;2023-11-18T03:48:08;22.38;;;12.20;;
83145;SDS011;73037;51.110;4.706;2023-11-18T03:50:39;26.58;;;15.10;;
83145;SDS011;73037;51.110;4.706;2023-11-18T03:53:05;24.25;;;10.90;;
83145;SDS011;73037;51.110;4.706;2023-11-18T03:55:31;23.83;;;12.90;;
83145;SDS011;73037;51.110;4.706;2023-11-18T03:57:57;21.20;;;10.68;;
83145;SDS011;73037;51.110;4.706;2023-11-18T04:00:23;22.77;;;11.80;;
83145;SDS011;73037;51.110;4.706;2023-11-18T04:02:54;20.77;;;10.63;;
83145;SDS011;73037;51.110;4.706;2023-11-18T04:05:21;22.50;;;11.40;;
83145;SDS011;73037;51.110;4.706;2023-11-18T04:07:47;21.70;;;11.25;;
83145;SDS011;73037;51.110;4.706;2023-11-18T04:10:12;19.13;;;11.57;;
83145;SDS011;73037;51.110;4.706;2023-11-18T04:12:38;25.20;;;13.43;;
83145;SDS011;73037;51.110;4.706;2023-11-18T04:15:04;19.85;;;11.15;;
83145;SDS011;73037;51.110;4.706;2023-11-18T04:17:31;18.20;;;9.70;;
83145;SDS011;73037;51.110;4.706;2023-11-18T04:19:57;19.80;;;8.82;;
83145;SDS011;73037;51.110;4.706;2023-11-18T04:22:23;16.60;;;9.65;;
83145;SDS011;73037;51.110;4.706;2023-11-18T04:24:49;19.38;;;9.13;;
83145;SDS011;73037;51.110;4.706;2023-11-18T04:27:15;18.92;;;8.38;;
83145;SDS011;73037;51.110;4.706;2023-11-18T04:29:41;21.05;;;9.90;;
83145;SDS011;73037;51.110;4.706;2023-11-18T04:32:07;17.13;;;8.10;;
83145;SDS011;73037;51.110;4.706;2023-11-18T04:34:36;18.70;;;8.27;;
83145;SDS011;73037;51.110;4.706;2023-11-18T04:37:02;16.90;;;9.40;;
83145;SDS011;73037;51.110;4.706;2023-11-18T04:39:28;22.83;;;8.80;;
83145;SDS011;73037;51.110;4.706;2023-11-18T04:41:57;18.20;;;8.75;;
83145;SDS011;73037;51.110;4.706;2023-11-18T04:44:22;16.40;;;8.10;;
83145;SDS011;73037;51.110;4.706;2023-11-18T04:46:48;17.30;;;9.00;;
83145;SDS011;73037;51.110;4.706;2023-11-18T04:49:14;17.88;;;8.48;;
83145;SDS011;73037;51.110;4.706;2023-11-18T04:51:43;19.80;;;8.48;;
83145;SDS011;73037;51.110;4.706;2023-11-18T04:54:09;21.30;;;8.45;;
83145;SDS011;73037;51.110;4.706;2023-11-18T04:56:35;16.02;;;8.32;;
83145;SDS011;73037;51.110;4.706;2023-11-18T04:59:02;17.60;;;7.80;;
83145;SDS011;73037;51.110;4.706;2023-11-18T05:01:29;16.02;;;8.07;;
83145;SDS011;73037;51.110;4.706;2023-11-18T05:03:56;18.95;;;7.85;;
83145;SDS011;73037;51.110;4.706;2023-11-18T05:06:21;17.50;;;7.78;;
83145;SDS011;73037;51.110;4.706;2023-11-18T05:08:47;16.67;;;8.00;;
83145;SDS011;73037;51.110;4.706;2023-11-18T05:11:13;17.05;;;7.97;;
83145;SDS011;73037;51.110;4.706;2023-11-18T05:13:41;17.23;;;7.63;;
83145;SDS011;73037;51.110;4.706;2023-11-18T05:16:07;15.70;;;7.43;;
83145;SDS011;73037;51.110;4.706;2023-11-18T05:18:37;15.32;;;7.22;;
83145;SDS011;73037;51.110;4.706;2023-11-18T05:21:04;14.80;;;7.30;;
83145;SDS011;73037;51.110;4.706;2023-11-18T05:23:30;12.80;;;7.20;;
83145;SDS011;73037;51.110;4.706;2023-11-18T05:25:59;13.88;;;7.60;;
83145;SDS011;73037;51.110;4.706;2023-11-18T05:28:25;12.68;;;6.93;;
83145;SDS011;73037;51.110;4.706;2023-11-18T05:30:51;12.15;;;6.63;;
83145;SDS011;73037;51.110;4.706;2023-11-18T05:33:17;15.00;;;6.07;;
83145;SDS011;73037;51.110;4.706;2023-11-18T05:35:44;19.23;;;7.78;;
83145;SDS011;73037;51.110;4.706;2023-11-18T05:38:14;13.52;;;6.30;;
83145;SDS011;73037;51.110;4.706;2023-11-18T05:40:43;14.50;;;6.13;;
83145;SDS011;73037;51.110;4.706;2023-11-18T05:43:20;18.00;;;7.70;;
83145;SDS011;73037;51.110;4.706;2023-11-18T05:45:47;15.73;;;6.88;;
83145;SDS011;73037;51.110;4.706;2023-11-18T05:48:42;14.68;;;6.07;;
83145;SDS011;73037;51.110;4.706;2023-11-18T05:51:08;13.52;;;6.40;;
83145;SDS011;73037;51.110;4.706;2023-11-18T05:53:38;17.73;;;7.78;;
83145;SDS011;73037;51.110;4.706;2023-11-18T05:56:14;11.13;;;6.25;;
83145;SDS011;73037;51.110;4.706;2023-11-18T05:58:42;17.30;;;7.55;;
83145;SDS011;73037;51.110;4.706;2023-11-18T06:01:08;11.45;;;5.20;;
83145;SDS011;73037;51.110;4.706;2023-11-18T06:03:34;11.20;;;5.97;;
83145;SDS011;73037;51.110;4.706;2023-11-18T06:08:39;12.30;;;5.03;;
83145;SDS011;73037;51.110;4.706;2023-11-18T06:11:09;8.55;;;4.55;;
83145;SDS011;73037;51.110;4.706;2023-11-18T06:13:42;7.72;;;3.92;;
83145;SDS011;73037;51.110;4.706;2023-11-18T06:16:09;9.10;;;4.07;;
83145;SDS011;73037;51.110;4.706;2023-11-18T06:18:45;10.25;;;6.30;;
83145;SDS011;73037;51.110;4.706;2023-11-18T06:21:15;9.50;;;4.32;;
83145;SDS011;73037;51.110;4.706;2023-11-18T06:23:43;43.05;;;21.58;;
83145;SDS011;73037;51.110;4.706;2023-11-18T06:26:10;25.50;;;13.57;;
83145;SDS011;73037;51.110;4.706;2023-11-18T06:28:43;15.88;;;8.50;;
83145;SDS011;73037;51.110;4.706;2023-11-18T06:31:10;20.73;;;9.25;;
83145;SDS011;73037;51.110;4.706;2023-11-18T06:33:43;12.10;;;4.28;;
83145;SDS011;73037;51.110;4.706;2023-11-18T06:38:38;4.97;;;3.33;;
83145;SDS011;73037;51.110;4.706;2023-11-18T06:41:05;12.35;;;4.20;;
83145;SDS011;73037;51.110;4.706;2023-11-18T06:43:35;8.85;;;3.45;;
83145;SDS011;73037;51.110;4.706;2023-11-18T06:46:38;9.52;;;3.25;;
83145;SDS011;73037;51.110;4.706;2023-11-18T06:49:04;10.65;;;3.35;;
83145;SDS011;73037;51.110;4.706;2023-11-18T06:51:32;6.47;;;3.13;;
83145;SDS011;73037;51.110;4.706;2023-11-18T06:54:03;15.85;;;8.23;;
83145;SDS011;73037;51.110;4.706;2023-11-18T06:56:39;10.05;;;4.72;;
83145;SDS011;73037;51.110;4.706;2023-11-18T06:59:08;7.55;;;4.10;;
83145;SDS011;73037;51.110;4.706;2023-11-18T07:01:37;11.45;;;3.65;;
83145;SDS011;73037;51.110;4.706;2023-11-18T07:04:07;9.57;;;3.85;;
83145;SDS011;73037;51.110;4.706;2023-11-18T07:06:33;7.35;;;3.33;;
83145;SDS011;73037;51.110;4.706;2023-11-18T07:09:03;12.07;;;3.60;;
83145;SDS011;73037;51.110;4.706;2023-11-18T07:11:37;9.68;;;4.03;;
83145;SDS011;73037;51.110;4.706;2023-11-18T07:14:03;11.10;;;3.90;;
83145;SDS011;73037;51.110;4.706;2023-11-18T07:16:29;5.95;;;3.30;;
83145;SDS011;73037;51.110;4.706;2023-11-18T07:18:54;9.15;;;3.20;;
83145;SDS011;73037;51.110;4.706;2023-11-18T07:21:20;6.65;;;2.80;;
83145;SDS011;73037;51.110;4.706;2023-11-18T07:23:46;7.65;;;2.78;;
83145;SDS011;73037;51.110;4.706;2023-11-18T07:26:11;10.70;;;2.72;;
83145;SDS011;73037;51.110;4.706;2023-11-18T07:28:39;6.97;;;2.63;;
83145;SDS011;73037;51.110;4.706;2023-11-18T07:31:05;6.28;;;2.63;;
83145;SDS011;73037;51.110;4.706;2023-11-18T07:33:31;7.50;;;2.92;;
83145;SDS011;73037;51.110;4.706;2023-11-18T07:35:57;7.18;;;2.72;;
83145;SDS011;73037;51.110;4.706;2023-11-18T07:38:23;7.03;;;2.78;;
83145;SDS011;73037;51.110;4.706;2023-11-18T07:40:49;7.32;;;2.30;;
83145;SDS011;73037;51.110;4.706;2023-11-18T07:43:17;4.90;;;2.63;;
83145;SDS011;73037;51.110;4.706;2023-11-18T07:45:46;5.95;;;1.98;;
83145;SDS011;73037;51.110;4.706;2023-11-18T07:48:15;6.55;;;2.33;;
83145;SDS011;73037;51.110;4.706;2023-11-18T07:50:42;9.10;;;3.05;;
83145;SDS011;73037;51.110;4.706;2023-11-18T07:53:11;8.75;;;2.58;;
83145;SDS011;73037;51.110;4.706;2023-11-18T07:55:37;6.03;;;2.42;;
83145;SDS011;73037;51.110;4.706;2023-11-18T07:58:05;7.75;;;2.50;;
83145;SDS011;73037;51.110;4.706;2023-11-18T08:00:39;4.10;;;2.08;;
83145;SDS011;73037;51.110;4.706;2023-11-18T08:03:10;6.20;;;2.55;;
83145;SDS011;73037;51.110;4.706;2023-11-18T08:05:43;9.82;;;2.38;;
83145;SDS011;73037;51.110;4.706;2023-11-18T08:08:13;8.43;;;2.25;;
83145;SDS011;73037;51.110;4.706;2023-11-18T08:10:42;7.22;;;2.72;;
83145;SDS011;73037;51.110;4.706;2023-11-18T08:15:38;7.88;;;2.85;;
83145;SDS011;73037;51.110;4.706;2023-11-18T08:18:04;7.38;;;2.50;;
83145;SDS011;73037;51.110;4.706;2023-11-18T08:20:31;11.27;;;3.10;;
83145;SDS011;73037;51.110;4.706;2023-11-18T08:22:57;7.60;;;2.97;;
83145;SDS011;73037;51.110;4.706;2023-11-18T08:25:22;12.05;;;3.35;;
83145;SDS011;73037;51.110;4.706;2023-11-18T08:27:48;9.23;;;2.90;;
83145;SDS011;73037;51.110;4.706;2023-11-18T08:30:14;7.68;;;2.88;;
83145;SDS011;73037;51.110;4.706;2023-11-18T08:32:43;16.70;;;8.32;;
83145;SDS011;73037;51.110;4.706;2023-11-18T08:37:39;13.05;;;3.95;;
83145;SDS011;73037;51.110;4.706;2023-11-18T08:40:06;11.07;;;3.53;;
83145;SDS011;73037;51.110;4.706;2023-11-18T08:42:50;14.07;;;5.57;;
83145;SDS011;73037;51.110;4.706;2023-11-18T08:45:17;13.40;;;4.30;;
83145;SDS011;73037;51.110;4.706;2023-11-18T08:47:54;32.47;;;12.38;;
83145;SDS011;73037;51.110;4.706;2023-11-18T08:50:21;12.15;;;5.22;;
83145;SDS011;73037;51.110;4.706;2023-11-18T08:52:54;76.13;;;27.40;;
83145;SDS011;73037;51.110;4.706;2023-11-18T08:55:23;12.27;;;4.47;;
83145;SDS011;73037;51.110;4.706;2023-11-18T08:58:03;34.50;;;13.27;;
83145;SDS011;73037;51.110;4.706;2023-11-18T09:00:41;29.40;;;11.02;;
83145;SDS011;73037;51.110;4.706;2023-11-18T09:03:16;24.77;;;8.25;;
83145;SDS011;73037;51.110;4.706;2023-11-18T09:05:50;19.58;;;7.63;;
83145;SDS011;73037;51.110;4.706;2023-11-18T09:08:27;27.67;;;11.98;;
83145;SDS011;73037;51.110;4.706;2023-11-18T09:10:57;13.73;;;3.70;;
83145;SDS011;73037;51.110;4.706;2023-11-18T09:13:24;9.73;;;3.70;;
83145;SDS011;73037;51.110;4.706;2023-11-18T09:15:54;11.05;;;3.30;;
83145;SDS011;73037;51.110;4.706;2023-11-18T09:18:21;8.88;;;4.20;;
83145;SDS011;73037;51.110;4.706;2023-11-18T09:20:47;12.05;;;5.50;;
83145;SDS011;73037;51.110;4.706;2023-11-18T09:23:13;12.38;;;4.88;;
83145;SDS011;73037;51.110;4.706;2023-11-18T09:25:41;15.45;;;4.95;;
83145;SDS011;73037;51.110;4.706;2023-11-18T09:28:07;8.80;;;3.65;;
83145;SDS011;73037;51.110;4.706;2023-11-18T09:30:36;14.50;;;4.82;;
83145;SDS011;73037;51.110;4.706;2023-11-18T09:33:04;7.78;;;3.58;;
83145;SDS011;73037;51.110;4.706;2023-11-18T09:35:39;11.02;;;4.55;;
83145;SDS011;73037;51.110;4.706;2023-11-18T09:38:05;14.82;;;4.47;;
83145;SDS011;73037;51.110;4.706;2023-11-18T09:40:32;15.40;;;4.35;;
83145;SDS011;73037;51.110;4.706;2023-11-18T09:43:02;11.77;;;4.25;;
83145;SDS011;73037;51.110;4.706;2023-11-18T09:45:34;12.63;;;4.50;;
83145;SDS011;73037;51.110;4.706;2023-11-18T09:48:01;14.00;;;5.15;;
83145;SDS011;73037;51.110;4.706;2023-11-18T09:50:34;10.98;;;4.00;;
83145;SDS011;73037;51.110;4.706;2023-11-18T09:53:04;13.73;;;3.85;;
83145;SDS011;73037;51.110;4.706;2023-11-18T09:55:42;12.93;;;4.32;;
83145;SDS011;73037;51.110;4.706;2023-11-18T09:58:15;11.77;;;4.82;;
83145;SDS011;73037;51.110;4.706;2023-11-18T10:00:44;12.65;;;3.88;;
83145;SDS011;73037;51.110;4.706;2023-11-18T10:03:15;11.07;;;4.32;;
83145;SDS011;73037;51.110;4.706;2023-11-18T10:05:41;7.70;;;3.50;;
83145;SDS011;73037;51.110;4.706;2023-11-18T10:08:08;10.70;;;3.30;;
83145;SDS011;73037;51.110;4.706;2023-11-18T10:10:34;12.30;;;3.75;;
83145;SDS011;73037;51.110;4.706;2023-11-18T10:13:10;8.93;;;3.53;;
83145;SDS011;73037;51.110;4.706;2023-11-18T10:15:47;10.15;;;3.95;;
83145;SDS011;73037;51.110;4.706;2023-11-18T10:18:17;14.35;;;4.18;;
83145;SDS011;73037;51.110;4.706;2023-11-18T10:20:49;13.93;;;4.15;;
83145;SDS011;73037;51.110;4.706;2023-11-18T10:23:17;8.63;;;3.70;;
83145;SDS011;73037;51.110;4.706;2023-11-18T10:30:57;15.95;;;4.60;;
83145;SDS011;73037;51.110;4.706;2023-11-18T10:33:37;7.63;;;3.42;;
83145;SDS011;73037;51.110;4.706;2023-11-18T10:36:18;7.75;;;3.35;;
83145;SDS011;73037;51.110;4.706;2023-11-18T10:38:49;8.90;;;3.63;;
83145;SDS011;73037;51.110;4.706;2023-11-18T10:41:17;10.25;;;3.95;;
83145;SDS011;73037;51.110;4.706;2023-11-18T10:43:47;9.80;;;3.88;;
83145;SDS011;73037;51.110;4.706;2023-11-18T10:46:16;12.40;;;3.83;;
83145;SDS011;73037;51.110;4.706;2023-11-18T10:48:42;10.93;;;4.65;;
83145;SDS011;73037;51.110;4.706;2023-11-18T10:51:18;9.43;;;3.70;;
83145;SDS011;73037;51.110;4.706;2023-11-18T10:53:49;13.10;;;4.15;;
83145;SDS011;73037;51.110;4.706;2023-11-18T10:56:29;11.35;;;3.60;;
83145;SDS011;73037;51.110;4.706;2023-11-18T11:01:33;9.50;;;3.13;;
83145;SDS011;73037;51.110;4.706;2023-11-18T11:04:03;8.45;;;3.15;;
83145;SDS011;73037;51.110;4.706;2023-11-18T11:06:30;8.45;;;4.00;;
83145;SDS011;73037;51.110;4.706;2023-11-18T11:08:58;11.90;;;3.75;;
83145;SDS011;73037;51.110;4.706;2023-11-18T11:11:24;11.98;;;3.95;;
83145;SDS011;73037;51.110;4.706;2023-11-18T11:13:53;9.18;;;3.80;;
83145;SDS011;73037;51.110;4.706;2023-11-18T11:16:23;13.88;;;4.65;;
83145;SDS011;73037;51.110;4.706;2023-11-18T11:18:55;20.60;;;8.55;;
83145;SDS011;73037;51.110;4.706;2023-11-18T11:21:26;9.68;;;4.40;;
83145;SDS011;73037;51.110;4.706;2023-11-18T11:24:06;12.63;;;4.88;;
83145;SDS011;73037;51.110;4.706;2023-11-18T11:26:50;9.70;;;3.78;;
83145;SDS011;73037;51.110;4.706;2023-11-18T11:32:00;16.13;;;5.93;;
83145;SDS011;73037;51.110;4.706;2023-11-18T11:34:53;20.15;;;5.85;;
83145;SDS011;73037;51.110;4.706;2023-11-18T11:37:30;7.22;;;3.63;;
83145;SDS011;73037;51.110;4.706;2023-11-18T11:39:59;11.52;;;4.82;;
83145;SDS011;73037;51.110;4.706;2023-11-18T11:42:29;7.43;;;3.28;;
83145;SDS011;73037;51.110;4.706;2023-11-18T11:44:57;9.55;;;4.70;;
83145;SDS011;73037;51.110;4.706;2023-11-18T11:47:24;11.18;;;3.40;;
83145;SDS011;73037;51.110;4.706;2023-11-18T11:49:59;18.75;;;6.15;;
83145;SDS011;73037;51.110;4.706;2023-11-18T11:52:42;12.02;;;4.82;;
83145;SDS011;73037;51.110;4.706;2023-11-18T11:57:59;56.97;;;18.92;;
83145;SDS011;73037;51.110;4.706;2023-11-18T12:00:27;18.20;;;7.55;;
83145;SDS011;73037;51.110;4.706;2023-11-18T12:02:59;9.23;;;3.70;;
83145;SDS011;73037;51.110;4.706;2023-11-18T12:05:29;12.23;;;4.60;;
83145;SDS011;73037;51.110;4.706;2023-11-18T12:07:58;16.08;;;7.45;;
83145;SDS011;73037;51.110;4.706;2023-11-18T12:10:27;11.07;;;5.05;;
83145;SDS011;73037;51.110;4.706;2023-11-18T12:13:08;8.02;;;4.30;;
83145;SDS011;73037;51.110;4.706;2023-11-18T12:15:50;17.20;;;6.43;;
83145;SDS011;73037;51.110;4.706;2023-11-18T12:18:22;9.77;;;4.32;;
83145;SDS011;73037;51.110;4.706;2023-11-18T12:20:49;7.10;;;3.28;;
83145;SDS011;73037;51.110;4.706;2023-11-18T12:23:22;8.80;;;3.17;;
83145;SDS011;73037;51.110;4.706;2023-11-18T12:28:26;5.25;;;2.28;;
83145;SDS011;73037;51.110;4.706;2023-11-18T12:30:55;7.07;;;2.50;;
83145;SDS011;73037;51.110;4.706;2023-11-18T12:41:37;5.32;;;2.50;;
83145;SDS011;73037;51.110;4.706;2023-11-18T12:46:49;5.65;;;2.72;;
83145;SDS011;73037;51.110;4.706;2023-11-18T12:49:24;7.88;;;2.40;;
83145;SDS011;73037;51.110;4.706;2023-11-18T12:51:53;4.72;;;2.28;;
83145;SDS011;73037;51.110;4.706;2023-11-18T12:54:21;6.15;;;2.10;;
83145;SDS011;73037;51.110;4.706;2023-11-18T12:56:50;3.70;;;2.03;;
83145;SDS011;73037;51.110;4.706;2023-11-18T12:59:19;2.65;;;1.67;;
83145;SDS011;73037;51.110;4.706;2023-11-18T13:01:52;6.80;;;1.92;;
83145;SDS011;73037;51.110;4.706;2023-11-18T13:04:22;3.17;;;1.90;;
83145;SDS011;73037;51.110;4.706;2023-11-18T13:06:49;4.28;;;1.83;;
83145;SDS011;73037;51.110;4.706;2023-11-18T13:09:19;2.35;;;1.60;;
83145;SDS011;73037;51.110;4.706;2023-11-18T13:11:57;3.95;;;1.67;;
83145;SDS011;73037;51.110;4.706;2023-11-18T13:14:25;3.10;;;1.70;;
83145;SDS011;73037;51.110;4.706;2023-11-18T13:21:59;2.47;;;1.60;;
83145;SDS011;73037;51.110;4.706;2023-11-18T13:24:29;2.05;;;1.40;;
83145;SDS011;73037;51.110;4.706;2023-11-18T13:26:59;2.38;;;1.40;;
83145;SDS011;73037;51.110;4.706;2023-11-18T13:29:29;32.15;;;11.55;;
83145;SDS011;73037;51.110;4.706;2023-11-18T13:31:57;3.30;;;2.13;;
83145;SDS011;73037;51.110;4.706;2023-11-18T13:34:25;7.32;;;4.13;;
83145;SDS011;73037;51.110;4.706;2023-11-18T13:36:52;11.25;;;6.25;;
83145;SDS011;73037;51.110;4.706;2023-11-18T13:39:20;5.38;;;2.58;;
83145;SDS011;73037;51.110;4.706;2023-11-18T13:41:48;8.75;;;4.25;;
83145;SDS011;73037;51.110;4.706;2023-11-18T13:47:00;5.97;;;2.63;;
83145;SDS011;73037;51.110;4.706;2023-11-18T13:49:27;2.45;;;1.45;;
83145;SDS011;73037;51.110;4.706;2023-11-18T13:51:54;4.50;;;2.20;;
83145;SDS011;73037;51.110;4.706;2023-11-18T13:54:21;11.52;;;3.30;;
83145;SDS011;73037;51.110;4.706;2023-11-18T13:56:47;8.70;;;2.25;;
83145;SDS011;73037;51.110;4.706;2023-11-18T13:59:14;6.20;;;2.63;;
83145;SDS011;73037;51.110;4.706;2023-11-18T14:01:40;25.60;;;7.07;;
83145;SDS011;73037;51.110;4.706;2023-11-18T14:04:06;7.82;;;2.00;;
83145;SDS011;73037;51.110;4.706;2023-11-18T14:09:00;20.02;;;5.90;;
83145;SDS011;73037;51.110;4.706;2023-11-18T14:11:26;10.23;;;4.03;;
83145;SDS011;73037;51.110;4.706;2023-11-18T14:13:52;7.22;;;3.38;;
83145;SDS011;73037;51.110;4.706;2023-11-18T14:16:18;25.27;;;9.10;;
83145;SDS011;73037;51.110;4.706;2023-11-18T14:18:46;19.60;;;7.55;;
83145;SDS011;73037;51.110;4.706;2023-11-18T14:21:13;16.75;;;7.50;;
83145;SDS011;73037;51.110;4.706;2023-11-18T14:23:41;18.90;;;7.50;;
83145;SDS011;73037;51.110;4.706;2023-11-18T14:26:07;9.10;;;3.58;;
83145;SDS011;73037;51.110;4.706;2023-11-18T14:28:36;5.05;;;2.47;;
83145;SDS011;73037;51.110;4.706;2023-11-18T14:31:02;4.95;;;2.72;;
83145;SDS011;73037;51.110;4.706;2023-11-18T14:33:33;5.28;;;1.60;;
83145;SDS011;73037;51.110;4.706;2023-11-18T14:36:01;9.23;;;4.18;;
83145;SDS011;73037;51.110;4.706;2023-11-18T14:38:30;6.90;;;2.90;;
83145;SDS011;73037;51.110;4.706;2023-11-18T14:40:55;4.72;;;2.15;;
83145;SDS011;73037;51.110;4.706;2023-11-18T14:43:21;4.38;;;1.98;;
83145;SDS011;73037;51.110;4.706;2023-11-18T14:45:47;3.45;;;1.77;;
83145;SDS011;73037;51.110;4.706;2023-11-18T14:48:13;1.40;;;1.10;;
83145;SDS011;73037;51.110;4.706;2023-11-18T14:50:39;4.63;;;1.55;;
83145;SDS011;73037;51.110;4.706;2023-11-18T14:53:05;4.60;;;3.20;;
83145;SDS011;73037;51.110;4.706;2023-11-18T14:55:31;3.17;;;1.80;;
83145;SDS011;73037;51.110;4.706;2023-11-18T14:57:58;7.38;;;3.83;;
83145;SDS011;73037;51.110;4.706;2023-11-18T15:00:24;5.00;;;2.45;;
83145;SDS011;73037;51.110;4.706;2023-11-18T15:02:52;6.28;;;4.40;;
83145;SDS011;73037;51.110;4.706;2023-11-18T15:05:20;4.00;;;2.35;;
83145;SDS011;73037;51.110;4.706;2023-11-18T15:07:50;3.47;;;2.00;;
83145;SDS011;73037;51.110;4.706;2023-11-18T15:10:18;9.32;;;5.82;;
83145;SDS011;73037;51.110;4.706;2023-11-18T15:12:46;4.00;;;1.50;;
83145;SDS011;73037;51.110;4.706;2023-11-18T15:15:23;4.88;;;2.80;;
83145;SDS011;73037;51.110;4.706;2023-11-18T15:17:56;2.35;;;1.40;;
83145;SDS011;73037;51.110;4.706;2023-11-18T15:22:55;2.22;;;1.25;;
83145;SDS011;73037;51.110;4.706;2023-11-18T15:25:21;3.63;;;2.50;;
83145;SDS011;73037;51.110;4.706;2023-11-18T15:27:47;7.82;;;4.43;;
83145;SDS011;73037;51.110;4.706;2023-11-18T15:32:41;2.78;;;1.60;;
83145;SDS011;73037;51.110;4.706;2023-11-18T15:35:09;2.55;;;1.48;;
83145;SDS011;73037;51.110;4.706;2023-11-18T15:37:41;3.25;;;1.55;;